sensor_id;sensor_type;location;lat;lon;timestamp;P1;durP1;ratioP1;P2;durP2;ratioP2
73456;SDS011;61691;53.072;6.582;2024-02-16T00:02:23;15.77;;;3.83;;
73456;SDS011;61691;53.072;6.582;2024-02-16T00:04:50;18.88;;;3.80;;
73456;SDS011;61691;53.072;6.582;2024-02-16T00:07:17;17.80;;;4.22;;
73456;SDS011;61691;53.072;6.582;2024-02-16T00:09:44;15.15;;;3.97;;
73456;SDS011;61691;53.072;6.582;2024-02-16T00:12:11;16.92;;;3.53;;
73456;SDS011;61691;53.072;6.582;2024-02-16T00:14:38;17.05;;;4.10;;
73456;SDS011;61691;53.072;6.582;2024-02-16T00:17:04;15.52;;;3.85;;
73456;SDS011;61691;53.072;6.582;2024-02-16T00:19:31;18.73;;;3.88;;
73456;SDS011;61691;53.072;6.582;2024-02-16T00:21:58;14.73;;;3.10;;
73456;SDS011;61691;53.072;6.582;2024-02-16T00:24:25;14.85;;;3.55;;
73456;SDS011;61691;53.072;6.582;2024-02-16T00:26:51;14.02;;;3.50;;
73456;SDS011;61691;53.072;6.582;2024-02-16T00:29:18;15.25;;;3.60;;
73456;SDS011;61691;53.072;6.582;2024-02-16T00:31:45;15.63;;;3.75;;
73456;SDS011;61691;53.072;6.582;2024-02-16T00:34:12;15.88;;;3.42;;
73456;SDS011;61691;53.072;6.582;2024-02-16T00:36:39;16.98;;;3.28;;
73456;SDS011;61691;53.072;6.582;2024-02-16T00:39:05;14.68;;;3.55;;
73456;SDS011;61691;53.072;6.582;2024-02-16T00:41:32;15.27;;;3.03;;
73456;SDS011;61691;53.072;6.582;2024-02-16T00:43:59;15.02;;;3.30;;
73456;SDS011;61691;53.072;6.582;2024-02-16T00:46:26;15.65;;;3.63;;
73456;SDS011;61691;53.072;6.582;2024-02-16T00:48:52;13.73;;;3.20;;
73456;SDS011;61691;53.072;6.582;2024-02-16T00:51:20;17.17;;;3.60;;
73456;SDS011;61691;53.072;6.582;2024-02-16T00:53:47;14.43;;;3.30;;
73456;SDS011;61691;53.072;6.582;2024-02-16T00:56:14;15.70;;;3.10;;
73456;SDS011;61691;53.072;6.582;2024-02-16T00:58:40;14.85;;;3.60;;
73456;SDS011;61691;53.072;6.582;2024-02-16T01:01:09;15.70;;;3.10;;
73456;SDS011;61691;53.072;6.582;2024-02-16T01:03:38;13.55;;;3.00;;
73456;SDS011;61691;53.072;6.582;2024-02-16T01:06:05;14.15;;;2.97;;
73456;SDS011;61691;53.072;6.582;2024-02-16T01:08:35;13.95;;;3.05;;
73456;SDS011;61691;53.072;6.582;2024-02-16T01:11:02;14.77;;;3.05;;
73456;SDS011;61691;53.072;6.582;2024-02-16T01:13:29;13.98;;;3.20;;
73456;SDS011;61691;53.072;6.582;2024-02-16T01:15:56;14.30;;;3.30;;
73456;SDS011;61691;53.072;6.582;2024-02-16T01:18:23;14.98;;;3.40;;
73456;SDS011;61691;53.072;6.582;2024-02-16T01:20:51;14.82;;;3.10;;
73456;SDS011;61691;53.072;6.582;2024-02-16T01:23:19;14.90;;;3.33;;
73456;SDS011;61691;53.072;6.582;2024-02-16T01:25:48;19.98;;;3.85;;
73456;SDS011;61691;53.072;6.582;2024-02-16T01:28:15;13.65;;;3.35;;
73456;SDS011;61691;53.072;6.582;2024-02-16T01:30:42;14.07;;;3.05;;
73456;SDS011;61691;53.072;6.582;2024-02-16T01:33:09;15.35;;;3.17;;
73456;SDS011;61691;53.072;6.582;2024-02-16T01:35:36;14.40;;;3.25;;
73456;SDS011;61691;53.072;6.582;2024-02-16T01:38:03;14.80;;;4.03;;
73456;SDS011;61691;53.072;6.582;2024-02-16T01:40:30;13.38;;;2.97;;
73456;SDS011;61691;53.072;6.582;2024-02-16T01:42:57;14.10;;;3.30;;
73456;SDS011;61691;53.072;6.582;2024-02-16T01:45:23;16.48;;;3.17;;
73456;SDS011;61691;53.072;6.582;2024-02-16T01:47:51;14.48;;;3.10;;
73456;SDS011;61691;53.072;6.582;2024-02-16T01:50:18;14.07;;;2.92;;
73456;SDS011;61691;53.072;6.582;2024-02-16T01:52:46;15.98;;;3.42;;
73456;SDS011;61691;53.072;6.582;2024-02-16T01:55:17;14.73;;;2.92;;
73456;SDS011;61691;53.072;6.582;2024-02-16T01:57:44;14.65;;;3.00;;
73456;SDS011;61691;53.072;6.582;2024-02-16T02:00:13;13.68;;;3.22;;
73456;SDS011;61691;53.072;6.582;2024-02-16T02:02:45;14.95;;;3.00;;
73456;SDS011;61691;53.072;6.582;2024-02-16T02:05:13;14.40;;;3.25;;
73456;SDS011;61691;53.072;6.582;2024-02-16T02:07:42;15.68;;;3.83;;
73456;SDS011;61691;53.072;6.582;2024-02-16T02:10:09;15.70;;;3.25;;
73456;SDS011;61691;53.072;6.582;2024-02-16T02:12:39;14.20;;;3.13;;
73456;SDS011;61691;53.072;6.582;2024-02-16T02:15:06;15.35;;;3.10;;
73456;SDS011;61691;53.072;6.582;2024-02-16T02:17:34;16.33;;;3.95;;
73456;SDS011;61691;53.072;6.582;2024-02-16T02:20:01;12.98;;;3.20;;
73456;SDS011;61691;53.072;6.582;2024-02-16T02:22:30;15.10;;;3.25;;
73456;SDS011;61691;53.072;6.582;2024-02-16T02:24:57;14.38;;;3.60;;
73456;SDS011;61691;53.072;6.582;2024-02-16T02:27:23;16.20;;;3.70;;
73456;SDS011;61691;53.072;6.582;2024-02-16T02:29:50;15.48;;;3.50;;
73456;SDS011;61691;53.072;6.582;2024-02-16T02:32:17;14.40;;;3.20;;
73456;SDS011;61691;53.072;6.582;2024-02-16T02:34:44;13.75;;;3.35;;
73456;SDS011;61691;53.072;6.582;2024-02-16T02:37:10;15.43;;;3.60;;
73456;SDS011;61691;53.072;6.582;2024-02-16T02:39:37;14.70;;;3.45;;
73456;SDS011;61691;53.072;6.582;2024-02-16T02:42:04;12.77;;;3.03;;
73456;SDS011;61691;53.072;6.582;2024-02-16T02:44:31;14.65;;;3.15;;
73456;SDS011;61691;53.072;6.582;2024-02-16T02:46:58;16.00;;;3.17;;
73456;SDS011;61691;53.072;6.582;2024-02-16T02:49:25;13.85;;;3.33;;
73456;SDS011;61691;53.072;6.582;2024-02-16T02:51:51;14.88;;;3.40;;
73456;SDS011;61691;53.072;6.582;2024-02-16T02:54:18;16.35;;;3.63;;
73456;SDS011;61691;53.072;6.582;2024-02-16T02:56:46;13.57;;;3.05;;
73456;SDS011;61691;53.072;6.582;2024-02-16T02:59:13;14.88;;;3.10;;
73456;SDS011;61691;53.072;6.582;2024-02-16T03:01:40;15.52;;;3.40;;
73456;SDS011;61691;53.072;6.582;2024-02-16T03:04:06;15.63;;;3.28;;
73456;SDS011;61691;53.072;6.582;2024-02-16T03:06:33;16.52;;;3.28;;
73456;SDS011;61691;53.072;6.582;2024-02-16T03:09:00;14.43;;;3.45;;
73456;SDS011;61691;53.072;6.582;2024-02-16T03:11:27;18.20;;;3.80;;
73456;SDS011;61691;53.072;6.582;2024-02-16T03:13:53;13.70;;;3.20;;
73456;SDS011;61691;53.072;6.582;2024-02-16T03:16:20;16.08;;;3.50;;
73456;SDS011;61691;53.072;6.582;2024-02-16T03:18:47;15.98;;;3.65;;
73456;SDS011;61691;53.072;6.582;2024-02-16T03:21:14;15.43;;;3.53;;
73456;SDS011;61691;53.072;6.582;2024-02-16T03:23:44;13.02;;;3.20;;
73456;SDS011;61691;53.072;6.582;2024-02-16T03:26:17;17.65;;;3.33;;
73456;SDS011;61691;53.072;6.582;2024-02-16T03:28:46;13.07;;;3.17;;
73456;SDS011;61691;53.072;6.582;2024-02-16T03:31:17;17.15;;;3.97;;
73456;SDS011;61691;53.072;6.582;2024-02-16T03:33:51;14.60;;;3.13;;
73456;SDS011;61691;53.072;6.582;2024-02-16T03:38:47;16.17;;;3.30;;
73456;SDS011;61691;53.072;6.582;2024-02-16T03:41:18;12.88;;;3.20;;
73456;SDS011;61691;53.072;6.582;2024-02-16T03:43:46;15.20;;;3.40;;
73456;SDS011;61691;53.072;6.582;2024-02-16T03:46:13;16.33;;;3.20;;
73456;SDS011;61691;53.072;6.582;2024-02-16T03:48:39;16.48;;;3.33;;
73456;SDS011;61691;53.072;6.582;2024-02-16T03:51:06;15.38;;;3.63;;
73456;SDS011;61691;53.072;6.582;2024-02-16T03:53:33;15.13;;;3.53;;
73456;SDS011;61691;53.072;6.582;2024-02-16T03:56:00;15.68;;;3.40;;
73456;SDS011;61691;53.072;6.582;2024-02-16T03:58:27;13.40;;;3.10;;
73456;SDS011;61691;53.072;6.582;2024-02-16T04:00:54;15.50;;;3.38;;
73456;SDS011;61691;53.072;6.582;2024-02-16T04:03:21;12.02;;;3.20;;
73456;SDS011;61691;53.072;6.582;2024-02-16T04:05:48;12.75;;;3.20;;
73456;SDS011;61691;53.072;6.582;2024-02-16T04:08:15;16.40;;;3.40;;
73456;SDS011;61691;53.072;6.582;2024-02-16T04:10:41;15.10;;;3.45;;
73456;SDS011;61691;53.072;6.582;2024-02-16T04:13:08;14.30;;;3.10;;
73456;SDS011;61691;53.072;6.582;2024-02-16T04:15:35;13.88;;;3.13;;
73456;SDS011;61691;53.072;6.582;2024-02-16T04:18:02;14.80;;;3.38;;
73456;SDS011;61691;53.072;6.582;2024-02-16T04:20:29;15.13;;;3.63;;
73456;SDS011;61691;53.072;6.582;2024-02-16T04:22:55;16.33;;;3.20;;
73456;SDS011;61691;53.072;6.582;2024-02-16T04:25:22;13.88;;;3.40;;
73456;SDS011;61691;53.072;6.582;2024-02-16T04:27:49;16.38;;;3.97;;
73456;SDS011;61691;53.072;6.582;2024-02-16T04:30:17;14.45;;;3.70;;
73456;SDS011;61691;53.072;6.582;2024-02-16T04:32:44;13.90;;;3.15;;
73456;SDS011;61691;53.072;6.582;2024-02-16T04:35:10;14.85;;;3.65;;
73456;SDS011;61691;53.072;6.582;2024-02-16T04:37:41;14.27;;;3.42;;
73456;SDS011;61691;53.072;6.582;2024-02-16T04:40:08;15.02;;;3.42;;
73456;SDS011;61691;53.072;6.582;2024-02-16T04:42:39;12.88;;;3.03;;
73456;SDS011;61691;53.072;6.582;2024-02-16T04:45:07;14.05;;;3.33;;
73456;SDS011;61691;53.072;6.582;2024-02-16T04:47:34;14.55;;;3.50;;
73456;SDS011;61691;53.072;6.582;2024-02-16T04:50:01;14.50;;;3.50;;
73456;SDS011;61691;53.072;6.582;2024-02-16T04:52:29;14.75;;;3.30;;
73456;SDS011;61691;53.072;6.582;2024-02-16T04:54:56;14.52;;;3.58;;
73456;SDS011;61691;53.072;6.582;2024-02-16T04:57:23;13.77;;;3.20;;
73456;SDS011;61691;53.072;6.582;2024-02-16T04:59:50;16.52;;;3.83;;
73456;SDS011;61691;53.072;6.582;2024-02-16T05:02:16;15.15;;;3.83;;
73456;SDS011;61691;53.072;6.582;2024-02-16T05:04:43;16.02;;;3.20;;
73456;SDS011;61691;53.072;6.582;2024-02-16T05:07:10;12.20;;;3.10;;
73456;SDS011;61691;53.072;6.582;2024-02-16T05:09:37;15.77;;;3.47;;
73456;SDS011;61691;53.072;6.582;2024-02-16T05:12:04;14.38;;;3.33;;
73456;SDS011;61691;53.072;6.582;2024-02-16T05:14:31;15.23;;;3.40;;
73456;SDS011;61691;53.072;6.582;2024-02-16T05:16:57;15.13;;;3.10;;
73456;SDS011;61691;53.072;6.582;2024-02-16T05:19:25;13.38;;;3.45;;
73456;SDS011;61691;53.072;6.582;2024-02-16T05:21:52;16.17;;;3.70;;
73456;SDS011;61691;53.072;6.582;2024-02-16T05:24:19;13.02;;;3.33;;
73456;SDS011;61691;53.072;6.582;2024-02-16T05:26:46;13.40;;;3.28;;
73456;SDS011;61691;53.072;6.582;2024-02-16T05:29:13;12.18;;;2.92;;
73456;SDS011;61691;53.072;6.582;2024-02-16T05:31:40;14.00;;;3.70;;
73456;SDS011;61691;53.072;6.582;2024-02-16T05:34:07;14.32;;;3.28;;
73456;SDS011;61691;53.072;6.582;2024-02-16T05:36:34;13.93;;;3.20;;
73456;SDS011;61691;53.072;6.582;2024-02-16T05:39:02;14.27;;;3.40;;
73456;SDS011;61691;53.072;6.582;2024-02-16T05:41:49;17.23;;;3.00;;
73456;SDS011;61691;53.072;6.582;2024-02-16T05:44:17;15.50;;;3.50;;
73456;SDS011;61691;53.072;6.582;2024-02-16T05:46:44;14.25;;;2.90;;
73456;SDS011;61691;53.072;6.582;2024-02-16T05:49:12;15.52;;;3.55;;
73456;SDS011;61691;53.072;6.582;2024-02-16T05:51:40;14.02;;;3.22;;
73456;SDS011;61691;53.072;6.582;2024-02-16T05:54:07;15.18;;;3.30;;
73456;SDS011;61691;53.072;6.582;2024-02-16T05:56:34;14.88;;;3.28;;
73456;SDS011;61691;53.072;6.582;2024-02-16T05:59:03;13.80;;;3.17;;
73456;SDS011;61691;53.072;6.582;2024-02-16T06:01:30;13.15;;;3.03;;
73456;SDS011;61691;53.072;6.582;2024-02-16T06:03:57;13.25;;;3.75;;
73456;SDS011;61691;53.072;6.582;2024-02-16T06:06:23;13.18;;;3.17;;
73456;SDS011;61691;53.072;6.582;2024-02-16T06:08:50;12.75;;;3.20;;
73456;SDS011;61691;53.072;6.582;2024-02-16T06:11:17;15.38;;;3.72;;
73456;SDS011;61691;53.072;6.582;2024-02-16T06:13:43;13.90;;;3.33;;
73456;SDS011;61691;53.072;6.582;2024-02-16T06:16:10;12.55;;;3.10;;
73456;SDS011;61691;53.072;6.582;2024-02-16T06:18:37;12.65;;;3.40;;
73456;SDS011;61691;53.072;6.582;2024-02-16T06:21:04;13.68;;;3.22;;
73456;SDS011;61691;53.072;6.582;2024-02-16T06:23:31;13.65;;;2.97;;
73456;SDS011;61691;53.072;6.582;2024-02-16T06:25:57;15.98;;;3.53;;
73456;SDS011;61691;53.072;6.582;2024-02-16T06:28:24;14.93;;;3.45;;
73456;SDS011;61691;53.072;6.582;2024-02-16T06:30:50;13.88;;;3.00;;
73456;SDS011;61691;53.072;6.582;2024-02-16T06:33:17;14.90;;;3.08;;
73456;SDS011;61691;53.072;6.582;2024-02-16T06:35:44;15.13;;;3.58;;
73456;SDS011;61691;53.072;6.582;2024-02-16T06:38:13;13.20;;;3.38;;
73456;SDS011;61691;53.072;6.582;2024-02-16T06:40:39;14.65;;;3.60;;
73456;SDS011;61691;53.072;6.582;2024-02-16T06:43:06;13.95;;;3.67;;
73456;SDS011;61691;53.072;6.582;2024-02-16T06:45:33;12.98;;;3.10;;
73456;SDS011;61691;53.072;6.582;2024-02-16T06:48:00;16.20;;;3.50;;
73456;SDS011;61691;53.072;6.582;2024-02-16T06:50:26;13.88;;;3.35;;
73456;SDS011;61691;53.072;6.582;2024-02-16T06:52:53;15.25;;;3.25;;
73456;SDS011;61691;53.072;6.582;2024-02-16T06:55:21;15.10;;;3.55;;
73456;SDS011;61691;53.072;6.582;2024-02-16T06:57:48;16.02;;;3.58;;
73456;SDS011;61691;53.072;6.582;2024-02-16T07:00:15;15.70;;;3.60;;
73456;SDS011;61691;53.072;6.582;2024-02-16T07:02:42;14.25;;;3.38;;
73456;SDS011;61691;53.072;6.582;2024-02-16T07:05:09;11.85;;;3.00;;
73456;SDS011;61691;53.072;6.582;2024-02-16T07:07:36;14.00;;;3.15;;
73456;SDS011;61691;53.072;6.582;2024-02-16T07:10:03;11.82;;;2.92;;
73456;SDS011;61691;53.072;6.582;2024-02-16T07:12:31;15.30;;;3.15;;
73456;SDS011;61691;53.072;6.582;2024-02-16T07:15:00;13.80;;;3.00;;
73456;SDS011;61691;53.072;6.582;2024-02-16T07:17:27;14.52;;;3.50;;
73456;SDS011;61691;53.072;6.582;2024-02-16T07:19:54;14.88;;;3.25;;
73456;SDS011;61691;53.072;6.582;2024-02-16T07:22:20;13.65;;;3.15;;
73456;SDS011;61691;53.072;6.582;2024-02-16T07:24:47;12.18;;;2.85;;
73456;SDS011;61691;53.072;6.582;2024-02-16T07:27:14;15.68;;;3.22;;
73456;SDS011;61691;53.072;6.582;2024-02-16T07:29:41;14.70;;;3.40;;
73456;SDS011;61691;53.072;6.582;2024-02-16T07:32:07;12.98;;;3.10;;
73456;SDS011;61691;53.072;6.582;2024-02-16T07:34:34;15.18;;;3.25;;
73456;SDS011;61691;53.072;6.582;2024-02-16T07:37:01;13.55;;;3.20;;
73456;SDS011;61691;53.072;6.582;2024-02-16T07:39:28;14.82;;;2.95;;
73456;SDS011;61691;53.072;6.582;2024-02-16T07:41:55;17.17;;;3.63;;
73456;SDS011;61691;53.072;6.582;2024-02-16T07:44:22;17.00;;;3.47;;
73456;SDS011;61691;53.072;6.582;2024-02-16T07:46:49;14.52;;;3.25;;
73456;SDS011;61691;53.072;6.582;2024-02-16T07:49:17;15.63;;;3.38;;
73456;SDS011;61691;53.072;6.582;2024-02-16T07:51:44;12.70;;;3.00;;
73456;SDS011;61691;53.072;6.582;2024-02-16T07:54:11;14.48;;;3.22;;
73456;SDS011;61691;53.072;6.582;2024-02-16T07:56:37;15.95;;;3.28;;
73456;SDS011;61691;53.072;6.582;2024-02-16T07:59:04;14.35;;;3.58;;
73456;SDS011;61691;53.072;6.582;2024-02-16T08:01:31;13.57;;;3.08;;
73456;SDS011;61691;53.072;6.582;2024-02-16T08:03:58;14.05;;;3.50;;
73456;SDS011;61691;53.072;6.582;2024-02-16T08:06:29;15.77;;;3.35;;
73456;SDS011;61691;53.072;6.582;2024-02-16T08:08:56;15.75;;;3.28;;
73456;SDS011;61691;53.072;6.582;2024-02-16T08:11:23;15.15;;;3.50;;
73456;SDS011;61691;53.072;6.582;2024-02-16T08:13:49;13.45;;;3.15;;
73456;SDS011;61691;53.072;6.582;2024-02-16T08:16:16;13.52;;;3.33;;
73456;SDS011;61691;53.072;6.582;2024-02-16T08:18:43;15.65;;;3.85;;
73456;SDS011;61691;53.072;6.582;2024-02-16T08:21:12;14.23;;;3.40;;
73456;SDS011;61691;53.072;6.582;2024-02-16T08:23:38;12.35;;;3.30;;
73456;SDS011;61691;53.072;6.582;2024-02-16T08:26:05;17.10;;;3.58;;
73456;SDS011;61691;53.072;6.582;2024-02-16T08:28:32;14.30;;;3.38;;
73456;SDS011;61691;53.072;6.582;2024-02-16T08:30:58;15.20;;;3.00;;
73456;SDS011;61691;53.072;6.582;2024-02-16T08:33:25;15.68;;;3.30;;
73456;SDS011;61691;53.072;6.582;2024-02-16T08:35:52;13.98;;;3.13;;
73456;SDS011;61691;53.072;6.582;2024-02-16T08:38:19;13.75;;;3.20;;
73456;SDS011;61691;53.072;6.582;2024-02-16T08:40:46;13.35;;;3.20;;
73456;SDS011;61691;53.072;6.582;2024-02-16T08:43:14;15.20;;;3.50;;
73456;SDS011;61691;53.072;6.582;2024-02-16T08:45:41;15.60;;;3.78;;
73456;SDS011;61691;53.072;6.582;2024-02-16T08:48:08;13.55;;;3.53;;
73456;SDS011;61691;53.072;6.582;2024-02-16T08:50:35;17.30;;;4.07;;
73456;SDS011;61691;53.072;6.582;2024-02-16T08:53:02;14.43;;;3.42;;
73456;SDS011;61691;53.072;6.582;2024-02-16T08:55:29;15.90;;;3.65;;
73456;SDS011;61691;53.072;6.582;2024-02-16T08:57:56;16.50;;;3.75;;
73456;SDS011;61691;53.072;6.582;2024-02-16T09:00:23;15.75;;;3.88;;
73456;SDS011;61691;53.072;6.582;2024-02-16T09:02:53;15.77;;;3.67;;
73456;SDS011;61691;53.072;6.582;2024-02-16T09:05:20;16.02;;;3.55;;
73456;SDS011;61691;53.072;6.582;2024-02-16T09:07:47;16.27;;;4.38;;
73456;SDS011;61691;53.072;6.582;2024-02-16T09:10:13;14.13;;;3.60;;
73456;SDS011;61691;53.072;6.582;2024-02-16T09:12:41;14.18;;;3.53;;
73456;SDS011;61691;53.072;6.582;2024-02-16T09:15:08;15.15;;;3.67;;
73456;SDS011;61691;53.072;6.582;2024-02-16T09:17:35;14.70;;;3.90;;
73456;SDS011;61691;53.072;6.582;2024-02-16T09:20:02;14.43;;;3.35;;
73456;SDS011;61691;53.072;6.582;2024-02-16T09:22:30;15.55;;;3.92;;
73456;SDS011;61691;53.072;6.582;2024-02-16T09:25:00;14.90;;;3.58;;
73456;SDS011;61691;53.072;6.582;2024-02-16T09:27:28;14.90;;;3.78;;
73456;SDS011;61691;53.072;6.582;2024-02-16T09:29:55;16.30;;;3.85;;
73456;SDS011;61691;53.072;6.582;2024-02-16T09:32:21;15.48;;;3.58;;
73456;SDS011;61691;53.072;6.582;2024-02-16T09:34:49;15.32;;;4.05;;
73456;SDS011;61691;53.072;6.582;2024-02-16T09:37:18;15.13;;;4.13;;
73456;SDS011;61691;53.072;6.582;2024-02-16T09:39:45;16.05;;;3.97;;
73456;SDS011;61691;53.072;6.582;2024-02-16T09:42:13;16.65;;;4.07;;
73456;SDS011;61691;53.072;6.582;2024-02-16T09:44:41;16.55;;;4.28;;
73456;SDS011;61691;53.072;6.582;2024-02-16T09:47:09;15.60;;;4.35;;
73456;SDS011;61691;53.072;6.582;2024-02-16T09:49:39;14.80;;;4.40;;
73456;SDS011;61691;53.072;6.582;2024-02-16T09:52:08;16.00;;;4.03;;
73456;SDS011;61691;53.072;6.582;2024-02-16T09:54:39;15.02;;;4.25;;
73456;SDS011;61691;53.072;6.582;2024-02-16T09:57:06;14.38;;;3.60;;
73456;SDS011;61691;53.072;6.582;2024-02-16T09:59:33;19.05;;;4.50;;
73456;SDS011;61691;53.072;6.582;2024-02-16T10:02:04;16.42;;;4.50;;
73456;SDS011;61691;53.072;6.582;2024-02-16T10:04:33;16.58;;;4.38;;
73456;SDS011;61691;53.072;6.582;2024-02-16T10:07:02;15.48;;;3.92;;
73456;SDS011;61691;53.072;6.582;2024-02-16T10:09:38;17.20;;;4.65;;
73456;SDS011;61691;53.072;6.582;2024-02-16T10:12:05;15.75;;;4.43;;
73456;SDS011;61691;53.072;6.582;2024-02-16T10:14:33;16.58;;;4.13;;
73456;SDS011;61691;53.072;6.582;2024-02-16T10:17:00;18.60;;;4.57;;
73456;SDS011;61691;53.072;6.582;2024-02-16T10:19:29;18.27;;;4.72;;
73456;SDS011;61691;53.072;6.582;2024-02-16T10:22:11;18.67;;;4.50;;
73456;SDS011;61691;53.072;6.582;2024-02-16T10:24:40;17.25;;;4.90;;
73456;SDS011;61691;53.072;6.582;2024-02-16T10:27:18;17.20;;;4.90;;
73456;SDS011;61691;53.072;6.582;2024-02-16T10:29:48;16.88;;;5.00;;
73456;SDS011;61691;53.072;6.582;2024-02-16T10:32:20;16.40;;;4.60;;
73456;SDS011;61691;53.072;6.582;2024-02-16T10:34:49;17.05;;;4.65;;
73456;SDS011;61691;53.072;6.582;2024-02-16T10:37:18;16.25;;;4.57;;
73456;SDS011;61691;53.072;6.582;2024-02-16T10:39:45;17.40;;;5.53;;
73456;SDS011;61691;53.072;6.582;2024-02-16T10:42:14;16.92;;;5.00;;
73456;SDS011;61691;53.072;6.582;2024-02-16T10:44:43;16.08;;;4.72;;
73456;SDS011;61691;53.072;6.582;2024-02-16T10:47:11;17.20;;;4.50;;
73456;SDS011;61691;53.072;6.582;2024-02-16T10:49:38;18.42;;;5.05;;
73456;SDS011;61691;53.072;6.582;2024-02-16T10:52:05;15.88;;;5.10;;
73456;SDS011;61691;53.072;6.582;2024-02-16T10:54:33;16.55;;;5.15;;
73456;SDS011;61691;53.072;6.582;2024-02-16T10:57:01;17.58;;;5.50;;
73456;SDS011;61691;53.072;6.582;2024-02-16T10:59:37;17.27;;;5.38;;
73456;SDS011;61691;53.072;6.582;2024-02-16T11:02:14;17.70;;;6.03;;
73456;SDS011;61691;53.072;6.582;2024-02-16T11:04:41;17.02;;;5.57;;
73456;SDS011;61691;53.072;6.582;2024-02-16T11:07:16;21.30;;;6.45;;
73456;SDS011;61691;53.072;6.582;2024-02-16T11:09:45;18.73;;;6.22;;
73456;SDS011;61691;53.072;6.582;2024-02-16T11:12:13;17.25;;;6.22;;
73456;SDS011;61691;53.072;6.582;2024-02-16T11:14:44;18.25;;;6.68;;
73456;SDS011;61691;53.072;6.582;2024-02-16T11:17:13;17.63;;;6.30;;
73456;SDS011;61691;53.072;6.582;2024-02-16T11:19:41;18.30;;;6.97;;
73456;SDS011;61691;53.072;6.582;2024-02-16T11:22:15;19.30;;;7.55;;
73456;SDS011;61691;53.072;6.582;2024-02-16T11:24:45;20.55;;;7.40;;
73456;SDS011;61691;53.072;6.582;2024-02-16T11:27:12;20.45;;;8.32;;
73456;SDS011;61691;53.072;6.582;2024-02-16T11:29:42;23.02;;;8.63;;
73456;SDS011;61691;53.072;6.582;2024-02-16T11:32:09;24.63;;;9.65;;
73456;SDS011;61691;53.072;6.582;2024-02-16T11:34:36;22.42;;;8.60;;
73456;SDS011;61691;53.072;6.582;2024-02-16T11:37:04;22.70;;;10.05;;
73456;SDS011;61691;53.072;6.582;2024-02-16T11:39:31;25.45;;;10.80;;
73456;SDS011;61691;53.072;6.582;2024-02-16T11:42:08;24.13;;;10.52;;
73456;SDS011;61691;53.072;6.582;2024-02-16T11:44:39;26.58;;;11.32;;
73456;SDS011;61691;53.072;6.582;2024-02-16T11:47:07;24.83;;;10.77;;
73456;SDS011;61691;53.072;6.582;2024-02-16T11:49:38;26.10;;;9.90;;
73456;SDS011;61691;53.072;6.582;2024-02-16T11:52:07;25.23;;;10.30;;
73456;SDS011;61691;53.072;6.582;2024-02-16T11:54:34;21.75;;;9.10;;
73456;SDS011;61691;53.072;6.582;2024-02-16T11:57:03;23.70;;;9.10;;
73456;SDS011;61691;53.072;6.582;2024-02-16T11:59:31;20.40;;;8.00;;
73456;SDS011;61691;53.072;6.582;2024-02-16T12:01:58;21.73;;;7.05;;
73456;SDS011;61691;53.072;6.582;2024-02-16T12:04:29;20.73;;;7.10;;
73456;SDS011;61691;53.072;6.582;2024-02-16T12:06:57;18.80;;;6.55;;
73456;SDS011;61691;53.072;6.582;2024-02-16T12:09:30;19.30;;;6.47;;
73456;SDS011;61691;53.072;6.582;2024-02-16T12:12:02;17.42;;;5.50;;
73456;SDS011;61691;53.072;6.582;2024-02-16T12:14:29;18.00;;;5.40;;
73456;SDS011;61691;53.072;6.582;2024-02-16T12:16:56;17.75;;;5.70;;
73456;SDS011;61691;53.072;6.582;2024-02-16T12:19:24;17.60;;;5.15;;
73456;SDS011;61691;53.072;6.582;2024-02-16T12:21:52;17.52;;;5.40;;
73456;SDS011;61691;53.072;6.582;2024-02-16T12:24:20;16.80;;;4.88;;
73456;SDS011;61691;53.072;6.582;2024-02-16T12:26:47;18.30;;;5.32;;
73456;SDS011;61691;53.072;6.582;2024-02-16T12:29:14;17.00;;;5.05;;
73456;SDS011;61691;53.072;6.582;2024-02-16T12:31:43;18.83;;;5.28;;
73456;SDS011;61691;53.072;6.582;2024-02-16T12:34:11;18.40;;;5.38;;
73456;SDS011;61691;53.072;6.582;2024-02-16T12:36:39;18.92;;;5.43;;
73456;SDS011;61691;53.072;6.582;2024-02-16T12:39:14;18.85;;;5.93;;
73456;SDS011;61691;53.072;6.582;2024-02-16T12:41:43;19.33;;;6.43;;
73456;SDS011;61691;53.072;6.582;2024-02-16T12:44:10;18.10;;;5.28;;
73456;SDS011;61691;53.072;6.582;2024-02-16T12:46:37;18.40;;;5.88;;
73456;SDS011;61691;53.072;6.582;2024-02-16T12:49:05;19.05;;;5.68;;
73456;SDS011;61691;53.072;6.582;2024-02-16T12:51:33;17.42;;;5.18;;
73456;SDS011;61691;53.072;6.582;2024-02-16T12:54:00;18.25;;;5.78;;
73456;SDS011;61691;53.072;6.582;2024-02-16T12:56:30;18.70;;;5.50;;
73456;SDS011;61691;53.072;6.582;2024-02-16T12:58:57;17.33;;;5.32;;
73456;SDS011;61691;53.072;6.582;2024-02-16T13:01:26;18.67;;;5.18;;
73456;SDS011;61691;53.072;6.582;2024-02-16T13:03:53;17.27;;;4.82;;
73456;SDS011;61691;53.072;6.582;2024-02-16T13:06:20;16.65;;;4.97;;
73456;SDS011;61691;53.072;6.582;2024-02-16T13:08:52;16.23;;;4.50;;
73456;SDS011;61691;53.072;6.582;2024-02-16T13:11:20;15.30;;;4.35;;
73456;SDS011;61691;53.072;6.582;2024-02-16T13:13:47;14.07;;;4.10;;
73456;SDS011;61691;53.072;6.582;2024-02-16T13:16:13;13.55;;;3.70;;
73456;SDS011;61691;53.072;6.582;2024-02-16T13:18:41;15.30;;;3.97;;
73456;SDS011;61691;53.072;6.582;2024-02-16T13:21:08;14.30;;;4.03;;
73456;SDS011;61691;53.072;6.582;2024-02-16T13:23:35;16.17;;;3.80;;
73456;SDS011;61691;53.072;6.582;2024-02-16T13:26:02;12.68;;;3.15;;
73456;SDS011;61691;53.072;6.582;2024-02-16T13:28:30;13.18;;;3.17;;
73456;SDS011;61691;53.072;6.582;2024-02-16T13:30:57;11.98;;;3.22;;
73456;SDS011;61691;53.072;6.582;2024-02-16T13:33:25;11.73;;;2.90;;
73456;SDS011;61691;53.072;6.582;2024-02-16T13:35:52;13.15;;;3.33;;
73456;SDS011;61691;53.072;6.582;2024-02-16T13:38:21;11.63;;;2.83;;
73456;SDS011;61691;53.072;6.582;2024-02-16T13:40:48;12.77;;;2.90;;
73456;SDS011;61691;53.072;6.582;2024-02-16T13:43:16;11.70;;;2.75;;
73456;SDS011;61691;53.072;6.582;2024-02-16T13:45:49;12.50;;;3.15;;
73456;SDS011;61691;53.072;6.582;2024-02-16T13:48:18;11.60;;;2.67;;
73456;SDS011;61691;53.072;6.582;2024-02-16T13:50:48;9.00;;;2.50;;
73456;SDS011;61691;53.072;6.582;2024-02-16T13:53:16;8.60;;;2.60;;
73456;SDS011;61691;53.072;6.582;2024-02-16T13:55:47;10.20;;;2.50;;
73456;SDS011;61691;53.072;6.582;2024-02-16T13:58:15;11.23;;;2.60;;
73456;SDS011;61691;53.072;6.582;2024-02-16T14:00:42;8.45;;;2.70;;
73456;SDS011;61691;53.072;6.582;2024-02-16T14:03:10;8.50;;;2.17;;
73456;SDS011;61691;53.072;6.582;2024-02-16T14:05:38;9.13;;;2.25;;
73456;SDS011;61691;53.072;6.582;2024-02-16T14:08:05;10.60;;;2.60;;
73456;SDS011;61691;53.072;6.582;2024-02-16T14:10:35;9.98;;;2.75;;
73456;SDS011;61691;53.072;6.582;2024-02-16T14:13:02;7.30;;;2.25;;
73456;SDS011;61691;53.072;6.582;2024-02-16T14:15:30;10.30;;;2.53;;
73456;SDS011;61691;53.072;6.582;2024-02-16T14:17:58;11.43;;;2.60;;
73456;SDS011;61691;53.072;6.582;2024-02-16T14:20:37;9.52;;;2.45;;
73456;SDS011;61691;53.072;6.582;2024-02-16T14:23:04;9.07;;;2.30;;
73456;SDS011;61691;53.072;6.582;2024-02-16T14:25:34;9.82;;;2.70;;
73456;SDS011;61691;53.072;6.582;2024-02-16T14:28:04;9.52;;;2.72;;
73456;SDS011;61691;53.072;6.582;2024-02-16T14:30:31;11.13;;;2.40;;
73456;SDS011;61691;53.072;6.582;2024-02-16T14:32:59;9.13;;;2.30;;
73456;SDS011;61691;53.072;6.582;2024-02-16T14:35:26;12.32;;;2.55;;
73456;SDS011;61691;53.072;6.582;2024-02-16T14:37:53;10.15;;;2.60;;
73456;SDS011;61691;53.072;6.582;2024-02-16T14:40:20;14.13;;;2.80;;
73456;SDS011;61691;53.072;6.582;2024-02-16T14:42:47;11.48;;;2.75;;